Lemont Furnace, Pennsylvania
Current Conditions -  °F | °C
As of 7:53 PM on Tuesday 21 Oct 2014 (Local Time) from KMGW Reporting Station
Overcast Overcast  
Wind Chill: 10°   Ceiling: 1400
Heat Index: 10°   Visibility: 10mi
Dew Point:   Wind: 6mph
Humidity: 83%   Direction: 320°NW
Pressure: 29.99"   Gusts: NA
Location:  39.91°N, 79.67°W
Report Text: KMGW 212353Z 32005KT 10SM BKN014 OVC029 10/07 A2999 RMK AO2 RAE22 SLP157 P0002 60022 T01000072 10122 20100 51017
Loading
Personal Weather Stations






























Interactive Weather Map
Tropical Storm Tracking
New forecast layout! Learn more

10-Day Weather Forecast

Advertisements
Track Severe Weather on mobile